sensor_id;sensor_type;location;lat;lon;timestamp;P1;durP1;ratioP1;P2;durP2;ratioP2
30998;SDS011;20549;50.042;8.968;2023-11-21T00:00:22;1.57;;;1.17;;
30998;SDS011;20549;50.042;8.968;2023-11-21T00:02:48;1.85;;;1.12;;
30998;SDS011;20549;50.042;8.968;2023-11-21T00:05:15;2.30;;;1.37;;
30998;SDS011;20549;50.042;8.968;2023-11-21T00:07:42;4.00;;;1.93;;
30998;SDS011;20549;50.042;8.968;2023-11-21T00:10:08;2.17;;;1.30;;
30998;SDS011;20549;50.042;8.968;2023-11-21T00:12:35;2.07;;;1.30;;
30998;SDS011;20549;50.042;8.968;2023-11-21T00:15:01;4.25;;;1.25;;
30998;SDS011;20549;50.042;8.968;2023-11-21T00:17:28;1.20;;;1.10;;
30998;SDS011;20549;50.042;8.968;2023-11-21T00:19:54;1.97;;;1.37;;
30998;SDS011;20549;50.042;8.968;2023-11-21T00:22:21;3.70;;;1.92;;
30998;SDS011;20549;50.042;8.968;2023-11-21T00:24:48;1.95;;;1.35;;
30998;SDS011;20549;50.042;8.968;2023-11-21T00:27:14;2.47;;;1.57;;
30998;SDS011;20549;50.042;8.968;2023-11-21T00:29:41;4.67;;;1.20;;
30998;SDS011;20549;50.042;8.968;2023-11-21T00:32:07;1.13;;;1.13;;
30998;SDS011;20549;50.042;8.968;2023-11-21T00:34:34;2.67;;;1.47;;
30998;SDS011;20549;50.042;8.968;2023-11-21T00:37:00;2.22;;;1.30;;
30998;SDS011;20549;50.042;8.968;2023-11-21T00:39:27;1.87;;;1.40;;
30998;SDS011;20549;50.042;8.968;2023-11-21T00:41:54;3.10;;;1.60;;
30998;SDS011;20549;50.042;8.968;2023-11-21T00:44:20;2.20;;;1.53;;
30998;SDS011;20549;50.042;8.968;2023-11-21T00:46:47;1.73;;;1.50;;
30998;SDS011;20549;50.042;8.968;2023-11-21T00:49:13;1.60;;;1.50;;
30998;SDS011;20549;50.042;8.968;2023-11-21T00:51:40;1.57;;;1.20;;
30998;SDS011;20549;50.042;8.968;2023-11-21T00:54:07;2.20;;;1.40;;
30998;SDS011;20549;50.042;8.968;2023-11-21T00:56:33;1.90;;;1.55;;
30998;SDS011;20549;50.042;8.968;2023-11-21T00:59:00;2.93;;;1.80;;
30998;SDS011;20549;50.042;8.968;2023-11-21T01:01:26;1.97;;;1.30;;
30998;SDS011;20549;50.042;8.968;2023-11-21T01:03:53;4.73;;;1.57;;
30998;SDS011;20549;50.042;8.968;2023-11-21T01:06:19;1.95;;;1.32;;
30998;SDS011;20549;50.042;8.968;2023-11-21T01:08:46;2.05;;;1.42;;
30998;SDS011;20549;50.042;8.968;2023-11-21T01:11:13;3.10;;;1.50;;
30998;SDS011;20549;50.042;8.968;2023-11-21T01:13:39;4.10;;;1.23;;
30998;SDS011;20549;50.042;8.968;2023-11-21T01:16:06;2.80;;;1.50;;
30998;SDS011;20549;50.042;8.968;2023-11-21T01:18:32;3.75;;;1.50;;
30998;SDS011;20549;50.042;8.968;2023-11-21T01:20:59;2.30;;;1.50;;
30998;SDS011;20549;50.042;8.968;2023-11-21T01:23:26;3.93;;;1.60;;
30998;SDS011;20549;50.042;8.968;2023-11-21T01:25:52;3.10;;;1.37;;
30998;SDS011;20549;50.042;8.968;2023-11-21T01:28:19;2.47;;;1.60;;
30998;SDS011;20549;50.042;8.968;2023-11-21T01:30:45;1.73;;;1.57;;
30998;SDS011;20549;50.042;8.968;2023-11-21T01:33:12;2.83;;;1.47;;
30998;SDS011;20549;50.042;8.968;2023-11-21T01:35:39;3.10;;;1.43;;
30998;SDS011;20549;50.042;8.968;2023-11-21T01:38:05;1.60;;;1.50;;
30998;SDS011;20549;50.042;8.968;2023-11-21T01:40:32;3.00;;;2.10;;
30998;SDS011;20549;50.042;8.968;2023-11-21T01:42:58;2.57;;;1.87;;
30998;SDS011;20549;50.042;8.968;2023-11-21T01:45:25;2.33;;;1.50;;
30998;SDS011;20549;50.042;8.968;2023-11-21T01:47:51;2.37;;;1.83;;
30998;SDS011;20549;50.042;8.968;2023-11-21T01:50:18;2.00;;;1.57;;
30998;SDS011;20549;50.042;8.968;2023-11-21T01:52:45;1.98;;;1.45;;
30998;SDS011;20549;50.042;8.968;2023-11-21T01:55:11;2.10;;;1.90;;
30998;SDS011;20549;50.042;8.968;2023-11-21T01:57:38;1.67;;;1.57;;
30998;SDS011;20549;50.042;8.968;2023-11-21T02:00:04;2.43;;;1.73;;
30998;SDS011;20549;50.042;8.968;2023-11-21T02:02:37;2.20;;;1.60;;
30998;SDS011;20549;50.042;8.968;2023-11-21T02:05:03;3.77;;;2.10;;
30998;SDS011;20549;50.042;8.968;2023-11-21T02:07:30;3.20;;;1.83;;
30998;SDS011;20549;50.042;8.968;2023-11-21T02:09:56;2.00;;;1.80;;
30998;SDS011;20549;50.042;8.968;2023-11-21T02:12:23;3.80;;;1.90;;
30998;SDS011;20549;50.042;8.968;2023-11-21T02:14:50;2.60;;;1.73;;
30998;SDS011;20549;50.042;8.968;2023-11-21T02:17:16;3.90;;;1.57;;
30998;SDS011;20549;50.042;8.968;2023-11-21T02:19:43;3.63;;;1.83;;
30998;SDS011;20549;50.042;8.968;2023-11-21T02:22:09;1.70;;;1.60;;
30998;SDS011;20549;50.042;8.968;2023-11-21T02:24:36;2.70;;;2.07;;
30998;SDS011;20549;50.042;8.968;2023-11-21T02:27:03;2.93;;;1.80;;
30998;SDS011;20549;50.042;8.968;2023-11-21T02:29:29;4.55;;;1.90;;
30998;SDS011;20549;50.042;8.968;2023-11-21T02:31:56;3.17;;;1.90;;
30998;SDS011;20549;50.042;8.968;2023-11-21T02:34:22;2.53;;;2.13;;
30998;SDS011;20549;50.042;8.968;2023-11-21T02:36:49;2.58;;;1.87;;
30998;SDS011;20549;50.042;8.968;2023-11-21T02:39:15;3.05;;;1.72;;
30998;SDS011;20549;50.042;8.968;2023-11-21T02:41:45;5.00;;;1.93;;
30998;SDS011;20549;50.042;8.968;2023-11-21T02:44:11;1.70;;;1.60;;
30998;SDS011;20549;50.042;8.968;2023-11-21T02:46:38;6.00;;;2.10;;
30998;SDS011;20549;50.042;8.968;2023-11-21T02:49:04;2.33;;;1.80;;
30998;SDS011;20549;50.042;8.968;2023-11-21T02:51:34;2.17;;;1.80;;
30998;SDS011;20549;50.042;8.968;2023-11-21T02:54:00;5.50;;;2.33;;
30998;SDS011;20549;50.042;8.968;2023-11-21T02:56:27;2.67;;;2.03;;
30998;SDS011;20549;50.042;8.968;2023-11-21T02:58:56;2.53;;;1.77;;
30998;SDS011;20549;50.042;8.968;2023-11-21T03:01:23;3.00;;;1.90;;
30998;SDS011;20549;50.042;8.968;2023-11-21T03:03:52;1.67;;;1.57;;
30998;SDS011;20549;50.042;8.968;2023-11-21T03:06:19;3.02;;;2.00;;
30998;SDS011;20549;50.042;8.968;2023-11-21T03:08:45;6.37;;;1.70;;
30998;SDS011;20549;50.042;8.968;2023-11-21T03:11:12;2.27;;;1.47;;
30998;SDS011;20549;50.042;8.968;2023-11-21T03:13:41;4.77;;;2.10;;
30998;SDS011;20549;50.042;8.968;2023-11-21T03:16:08;2.00;;;1.90;;
30998;SDS011;20549;50.042;8.968;2023-11-21T03:18:34;2.77;;;1.60;;
30998;SDS011;20549;50.042;8.968;2023-11-21T03:21:01;3.80;;;1.90;;
30998;SDS011;20549;50.042;8.968;2023-11-21T03:23:27;2.80;;;1.80;;
30998;SDS011;20549;50.042;8.968;2023-11-21T03:25:54;2.67;;;2.20;;
30998;SDS011;20549;50.042;8.968;2023-11-21T03:28:20;4.57;;;2.03;;
30998;SDS011;20549;50.042;8.968;2023-11-21T03:30:47;3.70;;;2.00;;
30998;SDS011;20549;50.042;8.968;2023-11-21T03:33:14;1.87;;;1.77;;
30998;SDS011;20549;50.042;8.968;2023-11-21T03:35:40;2.27;;;2.07;;
30998;SDS011;20549;50.042;8.968;2023-11-21T03:38:07;2.35;;;2.15;;
30998;SDS011;20549;50.042;8.968;2023-11-21T03:40:33;4.03;;;2.20;;
30998;SDS011;20549;50.042;8.968;2023-11-21T03:43:00;3.17;;;2.20;;
30998;SDS011;20549;50.042;8.968;2023-11-21T03:45:27;2.63;;;1.70;;
30998;SDS011;20549;50.042;8.968;2023-11-21T03:47:53;4.67;;;2.27;;
30998;SDS011;20549;50.042;8.968;2023-11-21T03:50:20;3.73;;;2.30;;
30998;SDS011;20549;50.042;8.968;2023-11-21T03:52:46;2.33;;;2.13;;
30998;SDS011;20549;50.042;8.968;2023-11-21T03:55:13;4.33;;;2.13;;
30998;SDS011;20549;50.042;8.968;2023-11-21T03:57:39;3.47;;;2.60;;
30998;SDS011;20549;50.042;8.968;2023-11-21T04:00:06;4.67;;;2.52;;
30998;SDS011;20549;50.042;8.968;2023-11-21T04:02:33;3.10;;;2.33;;
30998;SDS011;20549;50.042;8.968;2023-11-21T04:04:59;2.33;;;1.85;;
30998;SDS011;20549;50.042;8.968;2023-11-21T04:07:26;2.17;;;2.00;;
30998;SDS011;20549;50.042;8.968;2023-11-21T04:09:52;3.47;;;2.50;;
30998;SDS011;20549;50.042;8.968;2023-11-21T04:12:19;2.27;;;2.10;;
30998;SDS011;20549;50.042;8.968;2023-11-21T04:14:46;1.97;;;1.87;;
30998;SDS011;20549;50.042;8.968;2023-11-21T04:17:12;1.90;;;1.80;;
30998;SDS011;20549;50.042;8.968;2023-11-21T04:19:39;1.90;;;1.70;;
30998;SDS011;20549;50.042;8.968;2023-11-21T04:22:05;2.80;;;1.93;;
30998;SDS011;20549;50.042;8.968;2023-11-21T04:24:32;1.65;;;1.55;;
30998;SDS011;20549;50.042;8.968;2023-11-21T04:26:59;3.70;;;1.87;;
30998;SDS011;20549;50.042;8.968;2023-11-21T04:29:25;2.67;;;1.70;;
30998;SDS011;20549;50.042;8.968;2023-11-21T04:31:52;1.70;;;1.60;;
30998;SDS011;20549;50.042;8.968;2023-11-21T04:34:18;2.10;;;1.57;;
30998;SDS011;20549;50.042;8.968;2023-11-21T04:36:45;2.07;;;1.60;;
30998;SDS011;20549;50.042;8.968;2023-11-21T04:39:12;3.00;;;1.60;;
30998;SDS011;20549;50.042;8.968;2023-11-21T04:41:38;1.72;;;1.62;;
30998;SDS011;20549;50.042;8.968;2023-11-21T04:44:08;1.87;;;1.57;;
30998;SDS011;20549;50.042;8.968;2023-11-21T04:46:34;1.70;;;1.60;;
30998;SDS011;20549;50.042;8.968;2023-11-21T04:49:01;2.70;;;1.67;;
30998;SDS011;20549;50.042;8.968;2023-11-21T04:51:27;1.82;;;1.72;;
30998;SDS011;20549;50.042;8.968;2023-11-21T04:53:54;1.80;;;1.70;;
30998;SDS011;20549;50.042;8.968;2023-11-21T04:56:21;1.83;;;1.53;;
30998;SDS011;20549;50.042;8.968;2023-11-21T04:58:47;2.98;;;1.50;;
30998;SDS011;20549;50.042;8.968;2023-11-21T05:01:14;2.45;;;1.85;;
30998;SDS011;20549;50.042;8.968;2023-11-21T05:03:40;1.50;;;1.40;;
30998;SDS011;20549;50.042;8.968;2023-11-21T05:06:09;2.50;;;1.83;;
30998;SDS011;20549;50.042;8.968;2023-11-21T05:08:33;1.20;;;1.20;;
30998;SDS011;20549;50.042;8.968;2023-11-21T05:11:00;2.03;;;1.60;;
30998;SDS011;20549;50.042;8.968;2023-11-21T05:13:27;1.60;;;1.50;;
30998;SDS011;20549;50.042;8.968;2023-11-21T05:15:54;1.70;;;1.60;;
30998;SDS011;20549;50.042;8.968;2023-11-21T05:18:25;2.33;;;2.03;;
30998;SDS011;20549;50.042;8.968;2023-11-21T05:20:54;2.22;;;2.02;;
30998;SDS011;20549;50.042;8.968;2023-11-21T05:23:21;2.43;;;2.03;;
30998;SDS011;20549;50.042;8.968;2023-11-21T05:25:47;2.57;;;2.13;;
30998;SDS011;20549;50.042;8.968;2023-11-21T05:28:14;2.97;;;2.17;;
30998;SDS011;20549;50.042;8.968;2023-11-21T05:30:41;2.70;;;2.33;;
30998;SDS011;20549;50.042;8.968;2023-11-21T05:33:07;2.27;;;2.07;;
30998;SDS011;20549;50.042;8.968;2023-11-21T05:35:34;3.17;;;2.00;;
30998;SDS011;20549;50.042;8.968;2023-11-21T05:38:00;2.87;;;2.58;;
30998;SDS011;20549;50.042;8.968;2023-11-21T05:40:27;2.80;;;2.60;;
30998;SDS011;20549;50.042;8.968;2023-11-21T05:42:53;3.30;;;2.40;;
30998;SDS011;20549;50.042;8.968;2023-11-21T05:45:20;2.60;;;2.40;;
30998;SDS011;20549;50.042;8.968;2023-11-21T05:47:47;3.03;;;2.70;;
30998;SDS011;20549;50.042;8.968;2023-11-21T05:50:14;2.83;;;2.63;;
30998;SDS011;20549;50.042;8.968;2023-11-21T05:52:43;3.00;;;2.80;;
30998;SDS011;20549;50.042;8.968;2023-11-21T05:55:09;2.67;;;2.47;;
30998;SDS011;20549;50.042;8.968;2023-11-21T05:57:36;2.58;;;2.37;;
30998;SDS011;20549;50.042;8.968;2023-11-21T06:00:03;3.02;;;2.70;;
30998;SDS011;20549;50.042;8.968;2023-11-21T06:02:29;3.37;;;2.57;;
30998;SDS011;20549;50.042;8.968;2023-11-21T06:04:55;3.13;;;2.83;;
30998;SDS011;20549;50.042;8.968;2023-11-21T06:07:22;3.97;;;2.90;;
30998;SDS011;20549;50.042;8.968;2023-11-21T06:09:49;3.87;;;2.70;;
30998;SDS011;20549;50.042;8.968;2023-11-21T06:12:15;3.05;;;2.75;;
30998;SDS011;20549;50.042;8.968;2023-11-21T06:14:42;3.20;;;2.87;;
30998;SDS011;20549;50.042;8.968;2023-11-21T06:17:08;4.10;;;3.30;;
30998;SDS011;20549;50.042;8.968;2023-11-21T06:19:35;3.58;;;3.20;;
30998;SDS011;20549;50.042;8.968;2023-11-21T06:22:02;5.50;;;4.35;;
30998;SDS011;20549;50.042;8.968;2023-11-21T06:24:28;5.22;;;4.72;;
30998;SDS011;20549;50.042;8.968;2023-11-21T06:26:55;4.57;;;3.70;;
30998;SDS011;20549;50.042;8.968;2023-11-21T06:29:21;4.00;;;3.43;;
30998;SDS011;20549;50.042;8.968;2023-11-21T06:31:48;6.22;;;3.92;;
30998;SDS011;20549;50.042;8.968;2023-11-21T06:34:15;5.10;;;3.83;;
30998;SDS011;20549;50.042;8.968;2023-11-21T06:36:41;5.83;;;4.35;;
30998;SDS011;20549;50.042;8.968;2023-11-21T06:39:08;5.60;;;4.92;;
30998;SDS011;20549;50.042;8.968;2023-11-21T06:41:34;5.40;;;4.83;;
30998;SDS011;20549;50.042;8.968;2023-11-21T06:44:01;4.90;;;4.40;;
30998;SDS011;20549;50.042;8.968;2023-11-21T06:46:27;5.37;;;4.73;;
30998;SDS011;20549;50.042;8.968;2023-11-21T06:48:54;5.30;;;4.90;;
30998;SDS011;20549;50.042;8.968;2023-11-21T06:51:21;5.90;;;5.40;;
30998;SDS011;20549;50.042;8.968;2023-11-21T06:53:47;6.70;;;5.83;;
30998;SDS011;20549;50.042;8.968;2023-11-21T06:56:17;5.93;;;5.37;;
30998;SDS011;20549;50.042;8.968;2023-11-21T06:58:44;6.50;;;5.73;;
30998;SDS011;20549;50.042;8.968;2023-11-21T07:01:10;5.13;;;4.73;;
30998;SDS011;20549;50.042;8.968;2023-11-21T07:03:37;5.80;;;5.30;;
30998;SDS011;20549;50.042;8.968;2023-11-21T07:06:03;6.03;;;5.10;;
30998;SDS011;20549;50.042;8.968;2023-11-21T07:08:30;6.37;;;5.40;;
30998;SDS011;20549;50.042;8.968;2023-11-21T07:10:56;7.97;;;5.70;;
30998;SDS011;20549;50.042;8.968;2023-11-21T07:13:23;7.10;;;6.40;;
30998;SDS011;20549;50.042;8.968;2023-11-21T07:15:50;6.27;;;5.67;;
30998;SDS011;20549;50.042;8.968;2023-11-21T07:18:16;6.87;;;6.08;;
30998;SDS011;20549;50.042;8.968;2023-11-21T07:20:43;6.90;;;5.50;;
30998;SDS011;20549;50.042;8.968;2023-11-21T07:23:09;7.87;;;5.62;;
30998;SDS011;20549;50.042;8.968;2023-11-21T07:25:36;6.20;;;5.60;;
30998;SDS011;20549;50.042;8.968;2023-11-21T07:28:03;6.47;;;5.87;;
30998;SDS011;20549;50.042;8.968;2023-11-21T07:30:29;6.37;;;5.72;;
30998;SDS011;20549;50.042;8.968;2023-11-21T07:32:56;6.23;;;5.60;;
30998;SDS011;20549;50.042;8.968;2023-11-21T07:35:22;7.60;;;6.15;;
30998;SDS011;20549;50.042;8.968;2023-11-21T07:37:49;6.78;;;5.40;;
30998;SDS011;20549;50.042;8.968;2023-11-21T07:40:15;5.27;;;4.77;;
30998;SDS011;20549;50.042;8.968;2023-11-21T07:42:42;6.07;;;5.47;;
30998;SDS011;20549;50.042;8.968;2023-11-21T07:45:09;6.20;;;5.70;;
30998;SDS011;20549;50.042;8.968;2023-11-21T07:47:35;6.13;;;5.53;;
30998;SDS011;20549;50.042;8.968;2023-11-21T07:50:05;6.57;;;5.23;;
30998;SDS011;20549;50.042;8.968;2023-11-21T07:52:28;6.37;;;5.73;;
30998;SDS011;20549;50.042;8.968;2023-11-21T07:54:55;7.70;;;4.90;;
30998;SDS011;20549;50.042;8.968;2023-11-21T07:57:22;5.53;;;4.80;;
30998;SDS011;20549;50.042;8.968;2023-11-21T07:59:48;5.63;;;5.07;;
30998;SDS011;20549;50.042;8.968;2023-11-21T08:02:15;6.00;;;5.03;;
30998;SDS011;20549;50.042;8.968;2023-11-21T08:04:41;5.87;;;5.37;;
30998;SDS011;20549;50.042;8.968;2023-11-21T08:07:08;5.07;;;4.60;;
30998;SDS011;20549;50.042;8.968;2023-11-21T08:09:35;9.83;;;5.17;;
30998;SDS011;20549;50.042;8.968;2023-11-21T08:12:01;5.97;;;5.03;;
30998;SDS011;20549;50.042;8.968;2023-11-21T08:14:28;5.17;;;4.47;;
30998;SDS011;20549;50.042;8.968;2023-11-21T08:16:54;5.17;;;4.67;;
30998;SDS011;20549;50.042;8.968;2023-11-21T08:19:21;5.77;;;4.73;;
30998;SDS011;20549;50.042;8.968;2023-11-21T08:21:47;5.57;;;4.50;;
30998;SDS011;20549;50.042;8.968;2023-11-21T08:24:14;4.37;;;3.87;;
30998;SDS011;20549;50.042;8.968;2023-11-21T08:26:41;4.03;;;3.70;;
30998;SDS011;20549;50.042;8.968;2023-11-21T08:29:07;4.97;;;3.30;;
30998;SDS011;20549;50.042;8.968;2023-11-21T08:31:34;4.83;;;3.92;;
30998;SDS011;20549;50.042;8.968;2023-11-21T08:34:00;3.63;;;3.10;;
30998;SDS011;20549;50.042;8.968;2023-11-21T08:36:27;3.77;;;3.22;;
30998;SDS011;20549;50.042;8.968;2023-11-21T08:38:54;3.50;;;3.20;;
30998;SDS011;20549;50.042;8.968;2023-11-21T08:41:20;4.00;;;3.70;;
30998;SDS011;20549;50.042;8.968;2023-11-21T08:43:50;3.92;;;3.47;;
30998;SDS011;20549;50.042;8.968;2023-11-21T08:46:17;4.10;;;3.70;;
30998;SDS011;20549;50.042;8.968;2023-11-21T08:48:43;4.87;;;4.47;;
30998;SDS011;20549;50.042;8.968;2023-11-21T08:51:10;4.17;;;3.77;;
30998;SDS011;20549;50.042;8.968;2023-11-21T08:53:36;4.97;;;3.50;;
30998;SDS011;20549;50.042;8.968;2023-11-21T08:56:03;4.03;;;2.85;;
30998;SDS011;20549;50.042;8.968;2023-11-21T08:58:30;2.60;;;2.37;;
30998;SDS011;20549;50.042;8.968;2023-11-21T09:00:56;2.47;;;2.27;;
30998;SDS011;20549;50.042;8.968;2023-11-21T09:03:23;3.95;;;2.35;;
30998;SDS011;20549;50.042;8.968;2023-11-21T09:05:50;2.30;;;2.10;;
30998;SDS011;20549;50.042;8.968;2023-11-21T09:08:16;2.47;;;2.17;;
30998;SDS011;20549;50.042;8.968;2023-11-21T09:10:42;2.20;;;2.00;;
30998;SDS011;20549;50.042;8.968;2023-11-21T09:13:09;2.83;;;2.00;;
30998;SDS011;20549;50.042;8.968;2023-11-21T09:15:36;2.70;;;2.27;;
30998;SDS011;20549;50.042;8.968;2023-11-21T09:18:02;2.30;;;2.08;;
30998;SDS011;20549;50.042;8.968;2023-11-21T09:20:29;2.15;;;1.98;;
30998;SDS011;20549;50.042;8.968;2023-11-21T09:22:55;2.33;;;2.12;;
30998;SDS011;20549;50.042;8.968;2023-11-21T09:25:22;3.00;;;2.22;;
30998;SDS011;20549;50.042;8.968;2023-11-21T09:27:49;3.98;;;3.58;;
30998;SDS011;20549;50.042;8.968;2023-11-21T09:30:15;3.70;;;3.40;;
30998;SDS011;20549;50.042;8.968;2023-11-21T09:32:42;4.10;;;3.50;;
30998;SDS011;20549;50.042;8.968;2023-11-21T09:35:08;3.95;;;3.12;;
30998;SDS011;20549;50.042;8.968;2023-11-21T09:37:35;4.22;;;3.65;;
30998;SDS011;20549;50.042;8.968;2023-11-21T09:40:02;7.78;;;3.83;;
30998;SDS011;20549;50.042;8.968;2023-11-21T09:42:38;4.47;;;3.60;;
30998;SDS011;20549;50.042;8.968;2023-11-21T09:45:28;3.77;;;3.47;;
30998;SDS011;20549;50.042;8.968;2023-11-21T09:47:38;4.30;;;3.47;;
30998;SDS011;20549;50.042;8.968;2023-11-21T09:50:05;3.40;;;3.10;;
30998;SDS011;20549;50.042;8.968;2023-11-21T09:52:37;4.25;;;3.20;;
30998;SDS011;20549;50.042;8.968;2023-11-21T09:55:01;4.00;;;3.53;;
30998;SDS011;20549;50.042;8.968;2023-11-21T09:57:27;4.08;;;3.67;;
30998;SDS011;20549;50.042;8.968;2023-11-21T09:59:57;4.30;;;3.58;;
30998;SDS011;20549;50.042;8.968;2023-11-21T10:02:27;5.75;;;3.70;;
30998;SDS011;20549;50.042;8.968;2023-11-21T10:04:52;4.67;;;3.65;;
30998;SDS011;20549;50.042;8.968;2023-11-21T10:07:19;5.58;;;4.33;;
30998;SDS011;20549;50.042;8.968;2023-11-21T10:09:46;4.72;;;3.90;;
30998;SDS011;20549;50.042;8.968;2023-11-21T10:12:12;9.15;;;5.03;;
30998;SDS011;20549;50.042;8.968;2023-11-21T10:14:39;4.10;;;3.70;;
30998;SDS011;20549;50.042;8.968;2023-11-21T10:17:05;5.60;;;3.85;;
30998;SDS011;20549;50.042;8.968;2023-11-21T10:19:32;4.15;;;3.37;;
30998;SDS011;20549;50.042;8.968;2023-11-21T10:21:59;4.50;;;4.08;;
30998;SDS011;20549;50.042;8.968;2023-11-21T10:24:25;5.58;;;3.60;;
30998;SDS011;20549;50.042;8.968;2023-11-21T10:26:52;3.92;;;3.52;;
30998;SDS011;20549;50.042;8.968;2023-11-21T10:29:18;3.42;;;3.12;;
30998;SDS011;20549;50.042;8.968;2023-11-21T10:31:45;4.72;;;3.72;;
30998;SDS011;20549;50.042;8.968;2023-11-21T10:34:14;3.85;;;3.45;;
30998;SDS011;20549;50.042;8.968;2023-11-21T10:36:41;4.12;;;3.72;;
30998;SDS011;20549;50.042;8.968;2023-11-21T10:39:07;6.12;;;3.67;;
30998;SDS011;20549;50.042;8.968;2023-11-21T10:41:34;4.50;;;3.65;;
30998;SDS011;20549;50.042;8.968;2023-11-21T10:44:01;4.60;;;3.83;;
30998;SDS011;20549;50.042;8.968;2023-11-21T10:46:27;4.12;;;3.75;;
30998;SDS011;20549;50.042;8.968;2023-11-21T10:48:54;3.95;;;3.60;;
30998;SDS011;20549;50.042;8.968;2023-11-21T10:51:20;4.92;;;3.75;;
30998;SDS011;20549;50.042;8.968;2023-11-21T10:53:47;3.83;;;3.52;;
30998;SDS011;20549;50.042;8.968;2023-11-21T10:56:14;4.35;;;3.95;;
30998;SDS011;20549;50.042;8.968;2023-11-21T10:58:43;4.85;;;3.87;;
30998;SDS011;20549;50.042;8.968;2023-11-21T11:01:09;4.00;;;3.47;;
30998;SDS011;20549;50.042;8.968;2023-11-21T11:03:38;3.70;;;3.40;;
30998;SDS011;20549;50.042;8.968;2023-11-21T11:06:05;4.15;;;3.75;;
30998;SDS011;20549;50.042;8.968;2023-11-21T11:08:31;5.83;;;3.60;;
30998;SDS011;20549;50.042;8.968;2023-11-21T11:10:58;4.08;;;3.67;;
30998;SDS011;20549;50.042;8.968;2023-11-21T11:13:25;4.22;;;3.80;;
30998;SDS011;20549;50.042;8.968;2023-11-21T11:15:53;4.58;;;3.98;;
30998;SDS011;20549;50.042;8.968;2023-11-21T11:18:18;3.85;;;3.22;;
30998;SDS011;20549;50.042;8.968;2023-11-21T11:20:45;3.55;;;2.95;;
30998;SDS011;20549;50.042;8.968;2023-11-21T11:30:58;5.20;;;3.27;;
30998;SDS011;20549;50.042;8.968;2023-11-21T11:33:39;3.98;;;2.85;;
30998;SDS011;20549;50.042;8.968;2023-11-21T11:38:53;2.62;;;2.42;;
30998;SDS011;20549;50.042;8.968;2023-11-21T11:41:26;2.87;;;2.25;;
30998;SDS011;20549;50.042;8.968;2023-11-21T11:43:53;3.77;;;2.50;;
30998;SDS011;20549;50.042;8.968;2023-11-21T11:46:19;5.35;;;2.72;;
30998;SDS011;20549;50.042;8.968;2023-11-21T11:48:49;3.15;;;2.25;;
30998;SDS011;20549;50.042;8.968;2023-11-21T11:51:15;5.35;;;2.70;;
30998;SDS011;20549;50.042;8.968;2023-11-21T11:53:45;2.72;;;2.47;;
30998;SDS011;20549;50.042;8.968;2023-11-21T11:56:24;2.72;;;2.42;;
30998;SDS011;20549;50.042;8.968;2023-11-21T11:58:59;3.22;;;2.77;;
30998;SDS011;20549;50.042;8.968;2023-11-21T12:01:26;5.40;;;2.77;;
30998;SDS011;20549;50.042;8.968;2023-11-21T12:06:39;2.75;;;2.30;;
30998;SDS011;20549;50.042;8.968;2023-11-21T12:09:05;3.25;;;2.50;;
30998;SDS011;20549;50.042;8.968;2023-11-21T12:11:32;3.35;;;2.35;;
30998;SDS011;20549;50.042;8.968;2023-11-21T12:13:59;3.40;;;2.27;;
30998;SDS011;20549;50.042;8.968;2023-11-21T12:16:25;5.30;;;2.60;;
30998;SDS011;20549;50.042;8.968;2023-11-21T12:18:55;3.67;;;3.30;;
30998;SDS011;20549;50.042;8.968;2023-11-21T12:21:22;3.22;;;2.50;;
30998;SDS011;20549;50.042;8.968;2023-11-21T12:23:48;3.52;;;2.50;;
30998;SDS011;20549;50.042;8.968;2023-11-21T12:26:14;3.30;;;2.45;;
30998;SDS011;20549;50.042;8.968;2023-11-21T12:28:41;3.80;;;2.33;;
30998;SDS011;20549;50.042;8.968;2023-11-21T12:31:08;4.25;;;2.42;;
30998;SDS011;20549;50.042;8.968;2023-11-21T12:33:34;3.52;;;2.58;;
30998;SDS011;20549;50.042;8.968;2023-11-21T12:36:01;3.35;;;2.52;;
30998;SDS011;20549;50.042;8.968;2023-11-21T12:38:34;3.77;;;2.55;;
30998;SDS011;20549;50.042;8.968;2023-11-21T12:41:00;4.58;;;2.65;;
30998;SDS011;20549;50.042;8.968;2023-11-21T12:43:27;3.77;;;2.85;;
30998;SDS011;20549;50.042;8.968;2023-11-21T12:46:12;2.83;;;2.40;;
30998;SDS011;20549;50.042;8.968;2023-11-21T12:48:32;4.72;;;3.20;;
30998;SDS011;20549;50.042;8.968;2023-11-21T12:50:58;5.12;;;3.30;;
30998;SDS011;20549;50.042;8.968;2023-11-21T12:53:25;6.22;;;2.98;;
30998;SDS011;20549;50.042;8.968;2023-11-21T12:55:51;3.70;;;3.20;;
30998;SDS011;20549;50.042;8.968;2023-11-21T12:58:19;6.53;;;3.15;;
30998;SDS011;20549;50.042;8.968;2023-11-21T13:00:45;3.92;;;2.90;;
30998;SDS011;20549;50.042;8.968;2023-11-21T13:03:12;9.68;;;3.30;;
30998;SDS011;20549;50.042;8.968;2023-11-21T13:05:38;3.72;;;3.30;;
30998;SDS011;20549;50.042;8.968;2023-11-21T13:08:05;4.55;;;3.52;;
30998;SDS011;20549;50.042;8.968;2023-11-21T13:10:31;4.83;;;3.83;;
30998;SDS011;20549;50.042;8.968;2023-11-21T13:12:58;5.15;;;3.80;;
30998;SDS011;20549;50.042;8.968;2023-11-21T13:15:24;4.55;;;4.10;;
30998;SDS011;20549;50.042;8.968;2023-11-21T13:17:51;3.50;;;3.20;;
30998;SDS011;20549;50.042;8.968;2023-11-21T13:20:17;4.42;;;3.70;;
30998;SDS011;20549;50.042;8.968;2023-11-21T13:22:50;3.90;;;3.50;;
30998;SDS011;20549;50.042;8.968;2023-11-21T13:25:25;4.78;;;3.98;;
30998;SDS011;20549;50.042;8.968;2023-11-21T13:27:54;5.67;;;3.90;;
30998;SDS011;20549;50.042;8.968;2023-11-21T13:30:21;5.70;;;3.55;;
30998;SDS011;20549;50.042;8.968;2023-11-21T13:32:53;3.98;;;3.67;;
30998;SDS011;20549;50.042;8.968;2023-11-21T13:35:19;6.67;;;3.58;;
30998;SDS011;20549;50.042;8.968;2023-11-21T13:37:47;3.72;;;2.92;;
30998;SDS011;20549;50.042;8.968;2023-11-21T13:40:13;4.45;;;3.12;;
30998;SDS011;20549;50.042;8.968;2023-11-21T13:42:39;4.78;;;3.30;;
30998;SDS011;20549;50.042;8.968;2023-11-21T13:45:06;4.80;;;3.12;;
30998;SDS011;20549;50.042;8.968;2023-11-21T13:47:32;3.60;;;2.90;;
30998;SDS011;20549;50.042;8.968;2023-11-21T13:49:59;3.85;;;3.45;;
30998;SDS011;20549;50.042;8.968;2023-11-21T13:52:26;3.17;;;2.87;;
30998;SDS011;20549;50.042;8.968;2023-11-21T13:54:52;4.22;;;3.12;;
30998;SDS011;20549;50.042;8.968;2023-11-21T13:57:19;4.87;;;3.02;;
30998;SDS011;20549;50.042;8.968;2023-11-21T13:59:45;5.85;;;3.27;;
30998;SDS011;20549;50.042;8.968;2023-11-21T14:02:12;6.00;;;3.25;;
30998;SDS011;20549;50.042;8.968;2023-11-21T14:04:38;3.15;;;2.85;;
30998;SDS011;20549;50.042;8.968;2023-11-21T14:07:05;5.47;;;3.92;;
30998;SDS011;20549;50.042;8.968;2023-11-21T14:09:37;5.05;;;3.70;;
30998;SDS011;20549;50.042;8.968;2023-11-21T14:12:04;6.53;;;3.20;;
30998;SDS011;20549;50.042;8.968;2023-11-21T14:14:30;7.50;;;3.12;;
30998;SDS011;20549;50.042;8.968;2023-11-21T14:16:57;6.42;;;3.50;;
30998;SDS011;20549;50.042;8.968;2023-11-21T14:19:24;5.80;;;3.57;;
30998;SDS011;20549;50.042;8.968;2023-11-21T14:21:50;3.80;;;3.05;;
30998;SDS011;20549;50.042;8.968;2023-11-21T14:24:17;4.00;;;3.45;;
30998;SDS011;20549;50.042;8.968;2023-11-21T14:26:44;7.20;;;3.50;;
30998;SDS011;20549;50.042;8.968;2023-11-21T14:29:10;3.72;;;3.22;;
30998;SDS011;20549;50.042;8.968;2023-11-21T14:31:36;3.92;;;3.22;;
30998;SDS011;20549;50.042;8.968;2023-11-21T14:34:03;4.03;;;3.60;;
30998;SDS011;20549;50.042;8.968;2023-11-21T14:36:30;4.40;;;3.17;;
30998;SDS011;20549;50.042;8.968;2023-11-21T14:38:56;5.22;;;3.80;;
30998;SDS011;20549;50.042;8.968;2023-11-21T14:41:23;3.58;;;3.27;;
30998;SDS011;20549;50.042;8.968;2023-11-21T14:43:49;5.12;;;3.12;;
30998;SDS011;20549;50.042;8.968;2023-11-21T14:46:16;4.07;;;3.43;;
30998;SDS011;20549;50.042;8.968;2023-11-21T14:48:43;5.97;;;3.30;;
30998;SDS011;20549;50.042;8.968;2023-11-21T14:51:09;5.25;;;3.62;;
30998;SDS011;20549;50.042;8.968;2023-11-21T14:53:51;4.65;;;3.58;;
30998;SDS011;20549;50.042;8.968;2023-11-21T14:56:21;6.37;;;4.15;;
30998;SDS011;20549;50.042;8.968;2023-11-21T14:58:47;8.05;;;4.40;;